sensor_id;sensor_type;location;lat;lon;timestamp;temperature;humidity
60473;DHT22;46318;52.716;6.444;2022-07-22T00:01:36;16.60;99.90
60473;DHT22;46318;52.716;6.444;2022-07-22T00:04:03;16.60;99.90
60473;DHT22;46318;52.716;6.444;2022-07-22T00:06:32;16.60;99.90
60473;DHT22;46318;52.716;6.444;2022-07-22T00:08:58;16.60;99.90
60473;DHT22;46318;52.716;6.444;2022-07-22T00:11:24;16.60;99.90
60473;DHT22;46318;52.716;6.444;2022-07-22T00:13:50;16.60;99.90
60473;DHT22;46318;52.716;6.444;2022-07-22T00:16:16;16.60;99.90
60473;DHT22;46318;52.716;6.444;2022-07-22T00:18:41;16.60;99.90
60473;DHT22;46318;52.716;6.444;2022-07-22T00:21:07;16.60;99.90
60473;DHT22;46318;52.716;6.444;2022-07-22T00:23:33;16.60;99.90
60473;DHT22;46318;52.716;6.444;2022-07-22T00:25:59;16.60;99.90
60473;DHT22;46318;52.716;6.444;2022-07-22T00:28:25;16.60;99.90
60473;DHT22;46318;52.716;6.444;2022-07-22T00:30:52;16.60;99.90
60473;DHT22;46318;52.716;6.444;2022-07-22T00:33:18;16.50;99.90
60473;DHT22;46318;52.716;6.444;2022-07-22T00:35:47;16.50;99.90
60473;DHT22;46318;52.716;6.444;2022-07-22T00:38:12;16.50;99.90
60473;DHT22;46318;52.716;6.444;2022-07-22T00:40:38;16.50;99.90
60473;DHT22;46318;52.716;6.444;2022-07-22T00:43:04;16.50;99.90
60473;DHT22;46318;52.716;6.444;2022-07-22T00:45:30;16.50;99.90
60473;DHT22;46318;52.716;6.444;2022-07-22T00:47:56;16.50;99.90
60473;DHT22;46318;52.716;6.444;2022-07-22T00:50:22;16.50;99.90
60473;DHT22;46318;52.716;6.444;2022-07-22T00:52:49;16.50;99.90
60473;DHT22;46318;52.716;6.444;2022-07-22T00:55:15;16.50;99.90
60473;DHT22;46318;52.716;6.444;2022-07-22T00:57:42;16.40;99.90
60473;DHT22;46318;52.716;6.444;2022-07-22T01:00:12;16.40;99.90
60473;DHT22;46318;52.716;6.444;2022-07-22T01:02:40;16.40;99.90
60473;DHT22;46318;52.716;6.444;2022-07-22T01:05:07;16.40;99.90
60473;DHT22;46318;52.716;6.444;2022-07-22T01:07:33;16.40;99.90
60473;DHT22;46318;52.716;6.444;2022-07-22T01:09:58;16.40;99.90
60473;DHT22;46318;52.716;6.444;2022-07-22T01:12:24;16.40;99.90
60473;DHT22;46318;52.716;6.444;2022-07-22T01:14:50;16.40;99.90
60473;DHT22;46318;52.716;6.444;2022-07-22T01:17:16;16.40;99.90
60473;DHT22;46318;52.716;6.444;2022-07-22T01:19:42;16.30;99.90
60473;DHT22;46318;52.716;6.444;2022-07-22T01:22:08;16.30;99.90
60473;DHT22;46318;52.716;6.444;2022-07-22T01:24:35;16.30;99.90
60473;DHT22;46318;52.716;6.444;2022-07-22T01:27:01;16.30;99.90
60473;DHT22;46318;52.716;6.444;2022-07-22T01:29:27;16.30;99.90
60473;DHT22;46318;52.716;6.444;2022-07-22T01:31:52;16.30;99.90
60473;DHT22;46318;52.716;6.444;2022-07-22T01:34:18;16.30;99.90
60473;DHT22;46318;52.716;6.444;2022-07-22T01:36:44;16.30;99.90
60473;DHT22;46318;52.716;6.444;2022-07-22T01:39:10;16.30;99.90
60473;DHT22;46318;52.716;6.444;2022-07-22T01:41:37;16.30;99.90
60473;DHT22;46318;52.716;6.444;2022-07-22T01:44:03;16.30;99.90
60473;DHT22;46318;52.716;6.444;2022-07-22T01:46:29;16.20;99.90
60473;DHT22;46318;52.716;6.444;2022-07-22T01:48:55;16.20;99.90
60473;DHT22;46318;52.716;6.444;2022-07-22T01:51:21;16.20;99.90
60473;DHT22;46318;52.716;6.444;2022-07-22T01:53:47;16.20;99.90
60473;DHT22;46318;52.716;6.444;2022-07-22T01:56:13;16.20;99.90
60473;DHT22;46318;52.716;6.444;2022-07-22T01:58:39;16.20;99.90
60473;DHT22;46318;52.716;6.444;2022-07-22T02:01:06;16.20;99.90
60473;DHT22;46318;52.716;6.444;2022-07-22T02:03:32;16.20;99.90
60473;DHT22;46318;52.716;6.444;2022-07-22T02:05:58;16.10;99.90
60473;DHT22;46318;52.716;6.444;2022-07-22T02:08:24;16.10;99.90
60473;DHT22;46318;52.716;6.444;2022-07-22T02:10:50;16.10;99.90
60473;DHT22;46318;52.716;6.444;2022-07-22T02:13:16;16.10;99.90
60473;DHT22;46318;52.716;6.444;2022-07-22T02:15:42;16.10;99.90
60473;DHT22;46318;52.716;6.444;2022-07-22T02:18:12;16.10;99.90
60473;DHT22;46318;52.716;6.444;2022-07-22T02:20:39;16.10;99.90
60473;DHT22;46318;52.716;6.444;2022-07-22T02:23:06;16.10;99.90
60473;DHT22;46318;52.716;6.444;2022-07-22T02:25:32;16.10;99.90
60473;DHT22;46318;52.716;6.444;2022-07-22T02:28:00;16.10;99.90
60473;DHT22;46318;52.716;6.444;2022-07-22T02:30:26;16.10;99.90
60473;DHT22;46318;52.716;6.444;2022-07-22T02:32:52;16.10;99.90
60473;DHT22;46318;52.716;6.444;2022-07-22T02:35:18;16.10;99.90
60473;DHT22;46318;52.716;6.444;2022-07-22T02:37:44;16.10;99.90
60473;DHT22;46318;52.716;6.444;2022-07-22T02:40:10;16.10;99.90
60473;DHT22;46318;52.716;6.444;2022-07-22T02:42:35;16.00;99.90
60473;DHT22;46318;52.716;6.444;2022-07-22T02:45:02;16.10;99.90
60473;DHT22;46318;52.716;6.444;2022-07-22T02:47:29;16.00;99.90
60473;DHT22;46318;52.716;6.444;2022-07-22T02:49:54;16.00;99.90
60473;DHT22;46318;52.716;6.444;2022-07-22T02:52:22;16.00;99.90
60473;DHT22;46318;52.716;6.444;2022-07-22T02:54:48;16.00;99.90
60473;DHT22;46318;52.716;6.444;2022-07-22T02:57:14;16.00;99.90
60473;DHT22;46318;52.716;6.444;2022-07-22T02:59:40;16.00;99.90
60473;DHT22;46318;52.716;6.444;2022-07-22T03:02:06;16.00;99.90
60473;DHT22;46318;52.716;6.444;2022-07-22T03:04:32;16.00;99.90
60473;DHT22;46318;52.716;6.444;2022-07-22T03:06:58;16.00;99.90
60473;DHT22;46318;52.716;6.444;2022-07-22T03:09:24;16.00;99.90
60473;DHT22;46318;52.716;6.444;2022-07-22T03:11:49;16.00;99.90
60473;DHT22;46318;52.716;6.444;2022-07-22T03:14:15;15.90;99.90
60473;DHT22;46318;52.716;6.444;2022-07-22T03:16:42;16.00;99.90
60473;DHT22;46318;52.716;6.444;2022-07-22T03:19:08;15.90;99.90
60473;DHT22;46318;52.716;6.444;2022-07-22T03:21:34;16.00;99.90
60473;DHT22;46318;52.716;6.444;2022-07-22T03:23:59;16.00;99.90
60473;DHT22;46318;52.716;6.444;2022-07-22T03:26:25;16.00;99.90
60473;DHT22;46318;52.716;6.444;2022-07-22T03:28:51;16.00;99.90
60473;DHT22;46318;52.716;6.444;2022-07-22T03:31:18;16.00;99.90
60473;DHT22;46318;52.716;6.444;2022-07-22T03:33:44;16.00;99.90
60473;DHT22;46318;52.716;6.444;2022-07-22T03:36:10;15.90;99.90
60473;DHT22;46318;52.716;6.444;2022-07-22T03:38:36;16.00;99.90
60473;DHT22;46318;52.716;6.444;2022-07-22T03:41:04;16.00;99.90
60473;DHT22;46318;52.716;6.444;2022-07-22T03:43:30;16.00;99.90
60473;DHT22;46318;52.716;6.444;2022-07-22T03:45:56;15.90;99.90
60473;DHT22;46318;52.716;6.444;2022-07-22T03:48:22;15.90;99.90
60473;DHT22;46318;52.716;6.444;2022-07-22T03:50:48;15.90;99.90
60473;DHT22;46318;52.716;6.444;2022-07-22T03:53:17;15.90;99.90
60473;DHT22;46318;52.716;6.444;2022-07-22T03:55:43;15.90;99.90
60473;DHT22;46318;52.716;6.444;2022-07-22T03:58:09;15.90;99.90
60473;DHT22;46318;52.716;6.444;2022-07-22T04:00:35;15.90;99.90
60473;DHT22;46318;52.716;6.444;2022-07-22T04:03:00;15.90;99.90
60473;DHT22;46318;52.716;6.444;2022-07-22T04:05:26;15.90;99.90
60473;DHT22;46318;52.716;6.444;2022-07-22T04:07:52;15.90;99.90
60473;DHT22;46318;52.716;6.444;2022-07-22T04:10:18;15.90;99.90
60473;DHT22;46318;52.716;6.444;2022-07-22T04:12:44;15.90;99.90
60473;DHT22;46318;52.716;6.444;2022-07-22T04:15:10;15.90;99.90
60473;DHT22;46318;52.716;6.444;2022-07-22T04:17:38;15.90;99.90
60473;DHT22;46318;52.716;6.444;2022-07-22T04:20:04;15.90;99.90
60473;DHT22;46318;52.716;6.444;2022-07-22T04:22:31;15.90;99.90
60473;DHT22;46318;52.716;6.444;2022-07-22T04:24:57;15.90;99.90
60473;DHT22;46318;52.716;6.444;2022-07-22T04:27:23;15.90;99.90
60473;DHT22;46318;52.716;6.444;2022-07-22T04:29:49;15.90;99.90
60473;DHT22;46318;52.716;6.444;2022-07-22T04:32:15;15.90;99.90
60473;DHT22;46318;52.716;6.444;2022-07-22T04:34:41;15.90;99.90
60473;DHT22;46318;52.716;6.444;2022-07-22T04:37:07;15.90;99.90
60473;DHT22;46318;52.716;6.444;2022-07-22T04:39:33;15.90;99.90
60473;DHT22;46318;52.716;6.444;2022-07-22T04:41:59;15.90;99.90
60473;DHT22;46318;52.716;6.444;2022-07-22T04:44:25;15.90;99.90
60473;DHT22;46318;52.716;6.444;2022-07-22T04:46:51;15.90;99.90
60473;DHT22;46318;52.716;6.444;2022-07-22T04:49:17;15.90;99.90
60473;DHT22;46318;52.716;6.444;2022-07-22T04:51:43;15.90;99.90
60473;DHT22;46318;52.716;6.444;2022-07-22T04:54:09;15.90;99.90
60473;DHT22;46318;52.716;6.444;2022-07-22T04:56:35;15.90;99.90
60473;DHT22;46318;52.716;6.444;2022-07-22T04:59:00;15.90;99.90
60473;DHT22;46318;52.716;6.444;2022-07-22T05:01:26;15.90;99.90
60473;DHT22;46318;52.716;6.444;2022-07-22T05:03:52;15.90;99.90
60473;DHT22;46318;52.716;6.444;2022-07-22T05:06:18;15.90;99.90
60473;DHT22;46318;52.716;6.444;2022-07-22T05:08:45;15.90;99.90
60473;DHT22;46318;52.716;6.444;2022-07-22T05:11:13;15.90;99.90
60473;DHT22;46318;52.716;6.444;2022-07-22T05:13:39;15.90;99.90
60473;DHT22;46318;52.716;6.444;2022-07-22T05:16:06;15.90;99.90
60473;DHT22;46318;52.716;6.444;2022-07-22T05:18:32;15.90;99.90
60473;DHT22;46318;52.716;6.444;2022-07-22T05:20:59;15.90;99.90
60473;DHT22;46318;52.716;6.444;2022-07-22T05:23:24;15.90;99.90
60473;DHT22;46318;52.716;6.444;2022-07-22T05:25:50;15.90;99.90
60473;DHT22;46318;52.716;6.444;2022-07-22T05:28:16;15.90;99.90
60473;DHT22;46318;52.716;6.444;2022-07-22T05:30:42;16.00;99.90
60473;DHT22;46318;52.716;6.444;2022-07-22T05:33:07;16.00;99.90
60473;DHT22;46318;52.716;6.444;2022-07-22T05:35:33;16.00;99.90
60473;DHT22;46318;52.716;6.444;2022-07-22T05:37:59;16.00;99.90
60473;DHT22;46318;52.716;6.444;2022-07-22T05:40:25;16.00;99.90
60473;DHT22;46318;52.716;6.444;2022-07-22T05:42:50;16.00;99.90
60473;DHT22;46318;52.716;6.444;2022-07-22T05:45:16;16.00;99.90
60473;DHT22;46318;52.716;6.444;2022-07-22T05:47:43;16.00;99.90
60473;DHT22;46318;52.716;6.444;2022-07-22T05:50:12;16.00;99.90
60473;DHT22;46318;52.716;6.444;2022-07-22T05:52:43;16.00;99.90
60473;DHT22;46318;52.716;6.444;2022-07-22T05:55:09;16.00;99.90
60473;DHT22;46318;52.716;6.444;2022-07-22T05:57:36;16.10;99.90
60473;DHT22;46318;52.716;6.444;2022-07-22T06:00:11;16.10;99.90
60473;DHT22;46318;52.716;6.444;2022-07-22T06:02:37;16.10;99.90
60473;DHT22;46318;52.716;6.444;2022-07-22T06:05:06;16.10;99.90
60473;DHT22;46318;52.716;6.444;2022-07-22T06:07:32;16.10;99.90
60473;DHT22;46318;52.716;6.444;2022-07-22T06:09:58;16.10;99.90
60473;DHT22;46318;52.716;6.444;2022-07-22T06:12:24;16.10;99.90
60473;DHT22;46318;52.716;6.444;2022-07-22T06:14:53;16.20;99.90
60473;DHT22;46318;52.716;6.444;2022-07-22T06:17:21;16.20;99.90
60473;DHT22;46318;52.716;6.444;2022-07-22T06:19:47;16.20;99.90
60473;DHT22;46318;52.716;6.444;2022-07-22T06:22:13;16.20;99.90
60473;DHT22;46318;52.716;6.444;2022-07-22T06:24:39;16.20;99.90
60473;DHT22;46318;52.716;6.444;2022-07-22T06:27:05;16.30;99.90
60473;DHT22;46318;52.716;6.444;2022-07-22T06:29:30;16.30;99.90
60473;DHT22;46318;52.716;6.444;2022-07-22T06:32:00;16.30;99.90
60473;DHT22;46318;52.716;6.444;2022-07-22T06:34:25;16.30;99.90
60473;DHT22;46318;52.716;6.444;2022-07-22T06:36:51;16.30;99.90
60473;DHT22;46318;52.716;6.444;2022-07-22T06:39:17;16.30;99.90
60473;DHT22;46318;52.716;6.444;2022-07-22T06:41:43;16.40;99.90
60473;DHT22;46318;52.716;6.444;2022-07-22T06:44:09;16.40;99.90
60473;DHT22;46318;52.716;6.444;2022-07-22T06:46:35;16.40;99.90
60473;DHT22;46318;52.716;6.444;2022-07-22T06:49:00;16.50;99.90
60473;DHT22;46318;52.716;6.444;2022-07-22T06:51:27;16.50;99.90
60473;DHT22;46318;52.716;6.444;2022-07-22T06:53:53;16.50;99.90
60473;DHT22;46318;52.716;6.444;2022-07-22T06:56:19;16.50;99.90
60473;DHT22;46318;52.716;6.444;2022-07-22T06:58:44;16.50;99.90
60473;DHT22;46318;52.716;6.444;2022-07-22T07:01:10;16.60;99.90
60473;DHT22;46318;52.716;6.444;2022-07-22T07:03:37;16.60;99.90
60473;DHT22;46318;52.716;6.444;2022-07-22T07:06:03;16.60;99.90
60473;DHT22;46318;52.716;6.444;2022-07-22T07:08:31;16.70;99.90
60473;DHT22;46318;52.716;6.444;2022-07-22T07:10:57;16.70;99.90
60473;DHT22;46318;52.716;6.444;2022-07-22T07:13:23;16.70;99.90
60473;DHT22;46318;52.716;6.444;2022-07-22T07:15:49;16.70;99.90
60473;DHT22;46318;52.716;6.444;2022-07-22T07:18:15;16.80;99.90
60473;DHT22;46318;52.716;6.444;2022-07-22T07:20:40;16.80;99.90
60473;DHT22;46318;52.716;6.444;2022-07-22T07:23:06;16.80;99.90
60473;DHT22;46318;52.716;6.444;2022-07-22T07:25:32;16.80;99.90
60473;DHT22;46318;52.716;6.444;2022-07-22T07:27:59;16.90;99.90
60473;DHT22;46318;52.716;6.444;2022-07-22T07:30:25;16.90;99.90
60473;DHT22;46318;52.716;6.444;2022-07-22T07:32:51;16.90;99.90
60473;DHT22;46318;52.716;6.444;2022-07-22T07:35:16;17.00;99.90
60473;DHT22;46318;52.716;6.444;2022-07-22T07:37:42;17.00;99.90
60473;DHT22;46318;52.716;6.444;2022-07-22T07:40:09;17.00;99.90
60473;DHT22;46318;52.716;6.444;2022-07-22T07:42:35;17.10;99.90
60473;DHT22;46318;52.716;6.444;2022-07-22T07:45:01;17.10;99.90
60473;DHT22;46318;52.716;6.444;2022-07-22T07:47:27;17.10;99.90
60473;DHT22;46318;52.716;6.444;2022-07-22T07:49:53;17.10;99.90
60473;DHT22;46318;52.716;6.444;2022-07-22T07:52:19;17.20;99.90
60473;DHT22;46318;52.716;6.444;2022-07-22T07:54:45;17.20;99.90
60473;DHT22;46318;52.716;6.444;2022-07-22T07:57:11;17.30;99.90
60473;DHT22;46318;52.716;6.444;2022-07-22T07:59:38;17.40;99.90
60473;DHT22;46318;52.716;6.444;2022-07-22T08:02:05;17.40;99.90
60473;DHT22;46318;52.716;6.444;2022-07-22T08:04:31;17.40;99.90
60473;DHT22;46318;52.716;6.444;2022-07-22T08:06:57;17.50;99.80
60473;DHT22;46318;52.716;6.444;2022-07-22T08:09:23;17.50;99.30
60473;DHT22;46318;52.716;6.444;2022-07-22T08:11:50;17.60;98.80
60473;DHT22;46318;52.716;6.444;2022-07-22T08:14:16;17.60;99.40
60473;DHT22;46318;52.716;6.444;2022-07-22T08:16:42;17.60;98.70
60473;DHT22;46318;52.716;6.444;2022-07-22T08:19:08;17.70;98.50
60473;DHT22;46318;52.716;6.444;2022-07-22T08:21:34;17.70;98.30
60473;DHT22;46318;52.716;6.444;2022-07-22T08:24:00;17.80;98.20
60473;DHT22;46318;52.716;6.444;2022-07-22T08:26:29;17.80;97.50
60473;DHT22;46318;52.716;6.444;2022-07-22T08:28:54;17.80;97.20
60473;DHT22;46318;52.716;6.444;2022-07-22T08:31:20;17.80;97.00
60473;DHT22;46318;52.716;6.444;2022-07-22T08:33:46;17.90;96.90
60473;DHT22;46318;52.716;6.444;2022-07-22T08:36:12;17.90;96.70
60473;DHT22;46318;52.716;6.444;2022-07-22T08:38:38;17.90;96.90
60473;DHT22;46318;52.716;6.444;2022-07-22T08:41:04;18.00;96.80
60473;DHT22;46318;52.716;6.444;2022-07-22T08:43:31;18.00;96.50
60473;DHT22;46318;52.716;6.444;2022-07-22T08:46:02;18.10;96.80
60473;DHT22;46318;52.716;6.444;2022-07-22T08:48:27;18.10;96.70
60473;DHT22;46318;52.716;6.444;2022-07-22T08:50:53;18.20;96.40
60473;DHT22;46318;52.716;6.444;2022-07-22T08:53:19;18.20;96.30
60473;DHT22;46318;52.716;6.444;2022-07-22T08:55:47;18.30;96.20
60473;DHT22;46318;52.716;6.444;2022-07-22T08:58:14;18.30;96.00
60473;DHT22;46318;52.716;6.444;2022-07-22T09:00:41;18.30;95.70
60473;DHT22;46318;52.716;6.444;2022-07-22T09:03:19;18.30;95.80
60473;DHT22;46318;52.716;6.444;2022-07-22T09:05:48;18.40;95.50
60473;DHT22;46318;52.716;6.444;2022-07-22T09:08:14;18.40;95.40
60473;DHT22;46318;52.716;6.444;2022-07-22T09:10:40;18.40;95.70
60473;DHT22;46318;52.716;6.444;2022-07-22T09:13:08;18.40;95.50
60473;DHT22;46318;52.716;6.444;2022-07-22T09:15:39;18.40;94.80
60473;DHT22;46318;52.716;6.444;2022-07-22T09:18:12;18.50;94.40
60473;DHT22;46318;52.716;6.444;2022-07-22T09:20:38;18.50;94.40
60473;DHT22;46318;52.716;6.444;2022-07-22T09:23:12;18.50;94.50
60473;DHT22;46318;52.716;6.444;2022-07-22T09:25:49;18.50;94.60
60473;DHT22;46318;52.716;6.444;2022-07-22T09:28:21;18.50;94.70
60473;DHT22;46318;52.716;6.444;2022-07-22T09:30:52;18.50;94.70
60473;DHT22;46318;52.716;6.444;2022-07-22T09:33:20;18.50;94.70
60473;DHT22;46318;52.716;6.444;2022-07-22T09:35:47;18.50;94.80
60473;DHT22;46318;52.716;6.444;2022-07-22T09:38:15;18.50;94.80
60473;DHT22;46318;52.716;6.444;2022-07-22T09:40:44;18.60;94.60
60473;DHT22;46318;52.716;6.444;2022-07-22T09:43:13;18.60;95.00
60473;DHT22;46318;52.716;6.444;2022-07-22T09:46:07;18.60;94.50
60473;DHT22;46318;52.716;6.444;2022-07-22T09:48:39;18.60;94.20
60473;DHT22;46318;52.716;6.444;2022-07-22T09:51:06;18.70;94.70
60473;DHT22;46318;52.716;6.444;2022-07-22T09:53:33;18.70;94.50
60473;DHT22;46318;52.716;6.444;2022-07-22T09:56:02;18.70;94.30
60473;DHT22;46318;52.716;6.444;2022-07-22T09:58:30;18.70;94.00
60473;DHT22;46318;52.716;6.444;2022-07-22T10:01:00;18.70;94.20
60473;DHT22;46318;52.716;6.444;2022-07-22T10:03:32;18.70;94.00
60473;DHT22;46318;52.716;6.444;2022-07-22T10:06:01;18.80;94.10
60473;DHT22;46318;52.716;6.444;2022-07-22T10:08:31;18.80;93.90
60473;DHT22;46318;52.716;6.444;2022-07-22T10:11:06;18.80;93.70
60473;DHT22;46318;52.716;6.444;2022-07-22T10:13:33;18.90;93.20
60473;DHT22;46318;52.716;6.444;2022-07-22T10:16:00;18.90;93.20
60473;DHT22;46318;52.716;6.444;2022-07-22T10:18:26;18.90;93.00
60473;DHT22;46318;52.716;6.444;2022-07-22T10:21:06;19.00;92.80
60473;DHT22;46318;52.716;6.444;2022-07-22T10:23:34;19.00;92.70
60473;DHT22;46318;52.716;6.444;2022-07-22T10:26:02;19.10;93.40
60473;DHT22;46318;52.716;6.444;2022-07-22T10:28:36;19.20;92.70
60473;DHT22;46318;52.716;6.444;2022-07-22T10:31:22;19.30;92.80
60473;DHT22;46318;52.716;6.444;2022-07-22T10:33:57;19.40;92.30
60473;DHT22;46318;52.716;6.444;2022-07-22T10:36:44;19.40;92.40
60473;DHT22;46318;52.716;6.444;2022-07-22T10:39:12;19.50;92.00
60473;DHT22;46318;52.716;6.444;2022-07-22T10:41:44;19.60;92.20
60473;DHT22;46318;52.716;6.444;2022-07-22T10:44:11;19.70;91.60
60473;DHT22;46318;52.716;6.444;2022-07-22T10:46:54;19.70;91.30
60473;DHT22;46318;52.716;6.444;2022-07-22T10:49:25;19.70;90.90
60473;DHT22;46318;52.716;6.444;2022-07-22T10:57:43;19.90;90.40
60473;DHT22;46318;52.716;6.444;2022-07-22T11:00:09;19.90;91.40
60473;DHT22;46318;52.716;6.444;2022-07-22T11:02:37;19.90;91.40
60473;DHT22;46318;52.716;6.444;2022-07-22T11:05:04;19.90;91.20
60473;DHT22;46318;52.716;6.444;2022-07-22T11:07:31;19.90;91.30
60473;DHT22;46318;52.716;6.444;2022-07-22T11:10:13;19.90;91.60
60473;DHT22;46318;52.716;6.444;2022-07-22T11:12:41;19.90;91.70
60473;DHT22;46318;52.716;6.444;2022-07-22T11:15:08;19.90;92.00
60473;DHT22;46318;52.716;6.444;2022-07-22T11:17:35;19.80;92.30
60473;DHT22;46318;52.716;6.444;2022-07-22T11:20:06;19.90;92.60
60473;DHT22;46318;52.716;6.444;2022-07-22T11:22:35;19.80;92.30
60473;DHT22;46318;52.716;6.444;2022-07-22T11:25:04;19.90;92.50
60473;DHT22;46318;52.716;6.444;2022-07-22T11:27:32;19.80;92.50
60473;DHT22;46318;52.716;6.444;2022-07-22T11:29:58;19.80;92.60
60473;DHT22;46318;52.716;6.444;2022-07-22T11:32:26;19.90;92.80
60473;DHT22;46318;52.716;6.444;2022-07-22T11:34:57;19.80;92.60
60473;DHT22;46318;52.716;6.444;2022-07-22T11:37:25;19.80;92.50
60473;DHT22;46318;52.716;6.444;2022-07-22T11:39:58;19.80;92.50
60473;DHT22;46318;52.716;6.444;2022-07-22T11:42:26;19.80;92.60
60473;DHT22;46318;52.716;6.444;2022-07-22T11:44:52;19.80;92.50
60473;DHT22;46318;52.716;6.444;2022-07-22T11:47:18;19.90;92.40
60473;DHT22;46318;52.716;6.444;2022-07-22T11:49:45;19.90;92.10
60473;DHT22;46318;52.716;6.444;2022-07-22T11:52:13;19.90;92.00
60473;DHT22;46318;52.716;6.444;2022-07-22T11:54:40;19.90;91.90
60473;DHT22;46318;52.716;6.444;2022-07-22T11:57:07;19.90;91.90
60473;DHT22;46318;52.716;6.444;2022-07-22T11:59:34;19.90;91.60
60473;DHT22;46318;52.716;6.444;2022-07-22T12:02:01;19.90;91.30
60473;DHT22;46318;52.716;6.444;2022-07-22T12:04:29;20.00;91.20
60473;DHT22;46318;52.716;6.444;2022-07-22T12:06:58;20.00;90.90
60473;DHT22;46318;52.716;6.444;2022-07-22T12:09:28;20.00;91.00
60473;DHT22;46318;52.716;6.444;2022-07-22T12:11:56;20.00;91.00
60473;DHT22;46318;52.716;6.444;2022-07-22T12:14:28;20.00;91.30
60473;DHT22;46318;52.716;6.444;2022-07-22T12:17:04;20.00;90.90
60473;DHT22;46318;52.716;6.444;2022-07-22T12:19:38;20.00;90.80
60473;DHT22;46318;52.716;6.444;2022-07-22T12:22:06;20.10;90.70
60473;DHT22;46318;52.716;6.444;2022-07-22T12:24:35;20.10;90.70
60473;DHT22;46318;52.716;6.444;2022-07-22T12:27:11;20.10;90.60
60473;DHT22;46318;52.716;6.444;2022-07-22T12:29:44;20.10;90.70
60473;DHT22;46318;52.716;6.444;2022-07-22T12:32:16;20.20;90.70
60473;DHT22;46318;52.716;6.444;2022-07-22T12:34:54;20.20;90.60
60473;DHT22;46318;52.716;6.444;2022-07-22T12:37:33;20.20;90.50
60473;DHT22;46318;52.716;6.444;2022-07-22T12:40:05;20.30;90.50
60473;DHT22;46318;52.716;6.444;2022-07-22T12:42:38;20.30;90.20
60473;DHT22;46318;52.716;6.444;2022-07-22T12:45:08;20.30;90.00
60473;DHT22;46318;52.716;6.444;2022-07-22T12:47:49;20.30;90.10
60473;DHT22;46318;52.716;6.444;2022-07-22T12:50:34;20.40;90.20
60473;DHT22;46318;52.716;6.444;2022-07-22T12:53:16;20.40;90.30
60473;DHT22;46318;52.716;6.444;2022-07-22T12:58:12;20.50;90.20
60473;DHT22;46318;52.716;6.444;2022-07-22T13:00:41;20.50;90.10
60473;DHT22;46318;52.716;6.444;2022-07-22T13:03:08;20.50;90.10
60473;DHT22;46318;52.716;6.444;2022-07-22T13:05:34;20.60;90.10
60473;DHT22;46318;52.716;6.444;2022-07-22T13:08:02;20.60;90.00
60473;DHT22;46318;52.716;6.444;2022-07-22T13:10:28;20.60;90.00
60473;DHT22;46318;52.716;6.444;2022-07-22T13:12:55;20.70;90.00
60473;DHT22;46318;52.716;6.444;2022-07-22T13:15:22;20.70;90.00
60473;DHT22;46318;52.716;6.444;2022-07-22T13:17:49;20.80;90.10
60473;DHT22;46318;52.716;6.444;2022-07-22T13:20:16;20.80;90.00
60473;DHT22;46318;52.716;6.444;2022-07-22T13:22:46;20.80;90.10
60473;DHT22;46318;52.716;6.444;2022-07-22T13:25:13;20.80;89.80
60473;DHT22;46318;52.716;6.444;2022-07-22T13:27:39;20.80;89.60
60473;DHT22;46318;52.716;6.444;2022-07-22T13:30:05;20.70;89.90
60473;DHT22;46318;52.716;6.444;2022-07-22T13:32:32;20.70;90.00
60473;DHT22;46318;52.716;6.444;2022-07-22T13:34:59;20.80;90.00
60473;DHT22;46318;52.716;6.444;2022-07-22T13:37:25;20.80;89.30
60473;DHT22;46318;52.716;6.444;2022-07-22T13:39:51;20.80;89.20
60473;DHT22;46318;52.716;6.444;2022-07-22T13:42:18;20.90;88.60
60473;DHT22;46318;52.716;6.444;2022-07-22T13:44:49;20.90;88.10
60473;DHT22;46318;52.716;6.444;2022-07-22T13:47:16;20.90;87.80
60473;DHT22;46318;52.716;6.444;2022-07-22T13:49:46;20.90;87.50
60473;DHT22;46318;52.716;6.444;2022-07-22T13:52:15;21.00;86.80
60473;DHT22;46318;52.716;6.444;2022-07-22T13:54:42;21.00;86.80
60473;DHT22;46318;52.716;6.444;2022-07-22T13:57:09;21.00;86.80
60473;DHT22;46318;52.716;6.444;2022-07-22T13:59:35;21.10;86.80
60473;DHT22;46318;52.716;6.444;2022-07-22T14:02:01;21.10;86.70
60473;DHT22;46318;52.716;6.444;2022-07-22T14:04:27;21.10;85.90
60473;DHT22;46318;52.716;6.444;2022-07-22T14:06:53;21.10;86.60
60473;DHT22;46318;52.716;6.444;2022-07-22T14:09:19;21.20;86.20
60473;DHT22;46318;52.716;6.444;2022-07-22T14:11:45;21.20;85.80
60473;DHT22;46318;52.716;6.444;2022-07-22T14:14:11;21.20;85.30
60473;DHT22;46318;52.716;6.444;2022-07-22T14:16:38;21.20;84.80
60473;DHT22;46318;52.716;6.444;2022-07-22T14:19:13;21.20;84.40
60473;DHT22;46318;52.716;6.444;2022-07-22T14:21:43;21.20;84.60
60473;DHT22;46318;52.716;6.444;2022-07-22T14:24:11;21.20;85.00
60473;DHT22;46318;52.716;6.444;2022-07-22T14:26:37;21.20;84.80
60473;DHT22;46318;52.716;6.444;2022-07-22T14:29:04;21.30;85.90
60473;DHT22;46318;52.716;6.444;2022-07-22T14:31:31;21.30;84.70
60473;DHT22;46318;52.716;6.444;2022-07-22T14:33:58;21.30;85.70
60473;DHT22;46318;52.716;6.444;2022-07-22T14:36:26;21.30;85.10
60473;DHT22;46318;52.716;6.444;2022-07-22T14:38:52;21.30;86.60
60473;DHT22;46318;52.716;6.444;2022-07-22T14:41:21;21.30;86.30
60473;DHT22;46318;52.716;6.444;2022-07-22T14:43:48;21.30;86.00
60473;DHT22;46318;52.716;6.444;2022-07-22T14:46:13;21.30;85.90
60473;DHT22;46318;52.716;6.444;2022-07-22T14:48:40;21.30;85.60
60473;DHT22;46318;52.716;6.444;2022-07-22T14:51:11;21.30;86.20
60473;DHT22;46318;52.716;6.444;2022-07-22T14:53:37;21.30;86.50
60473;DHT22;46318;52.716;6.444;2022-07-22T14:56:03;21.20;87.60
60473;DHT22;46318;52.716;6.444;2022-07-22T14:58:29;21.20;86.30
60473;DHT22;46318;52.716;6.444;2022-07-22T15:00:55;21.20;86.20
60473;DHT22;46318;52.716;6.444;2022-07-22T15:03:20;21.10;86.80
60473;DHT22;46318;52.716;6.444;2022-07-22T15:05:46;21.20;87.00
60473;DHT22;46318;52.716;6.444;2022-07-22T15:08:13;21.10;87.00
60473;DHT22;46318;52.716;6.444;2022-07-22T15:10:39;21.10;87.00
60473;DHT22;46318;52.716;6.444;2022-07-22T15:13:04;21.00;86.70
60473;DHT22;46318;52.716;6.444;2022-07-22T15:15:30;21.00;86.60
60473;DHT22;46318;52.716;6.444;2022-07-22T15:17:57;21.00;86.70
60473;DHT22;46318;52.716;6.444;2022-07-22T15:20:26;21.00;86.50
60473;DHT22;46318;52.716;6.444;2022-07-22T15:22:55;21.00;86.70
60473;DHT22;46318;52.716;6.444;2022-07-22T15:25:21;21.00;87.30
60473;DHT22;46318;52.716;6.444;2022-07-22T15:27:49;21.00;87.10
60473;DHT22;46318;52.716;6.444;2022-07-22T15:30:16;21.00;86.60
60473;DHT22;46318;52.716;6.444;2022-07-22T15:32:42;20.90;86.20
60473;DHT22;46318;52.716;6.444;2022-07-22T15:35:10;21.00;86.20
60473;DHT22;46318;52.716;6.444;2022-07-22T15:37:37;21.00;86.30
60473;DHT22;46318;52.716;6.444;2022-07-22T15:40:08;20.90;86.50